Time;durP1;ratioP1;P1;durP2;ratioP2;P2;SDS_P1;SDS_P2;PMS_P1;PMS_P2;Temp;Humidity;BMP_temperature;BMP_pressure;BME280_temperature;BME280_humidity;BME280_pressure;Samples;Min_cycle;Max_cycle;Signal;HPM_P1;HPM_P2
2023/07/22 00:00:00;;;;;;;6.88;4.20;;;;;;;12.83;88.28;101016.59;4922296;29;20035;-76
2023/07/22 00:02:52;;;;;;;7.25;4.65;;;;;;;12.84;88.95;101018.19;4903072;29;20040;-77
2023/07/22 00:13:53;;;;;;;9.65;4.80;;;;;;;12.76;88.90;101010.72;4929318;29;20058;-72
2023/07/22 00:16:29;;;;;;;8.18;5.00;;;;;;;12.82;88.87;101020.38;4902013;29;20048;-76
2023/07/22 00:19:00;;;;;;;9.40;4.80;;;;;;;12.81;89.05;101018.75;4884572;29;20047;-76
2023/07/22 00:21:31;;;;;;;10.85;4.53;;;;;;;12.79;89.10;101012.03;4914603;29;20031;-78
2023/07/22 00:24:09;;;;;;;7.55;4.57;;;;;;;12.78;88.72;101019.31;4925956;29;20039;-80
2023/07/22 00:29:54;;;;;;;7.85;4.57;;;;;;;12.77;88.86;101023.06;4908432;29;20048;-80
2023/07/22 00:32:38;;;;;;;8.63;5.03;;;;;;;12.73;89.18;101016.63;4907053;29;20043;-80
2023/07/22 00:35:11;;;;;;;6.75;4.72;;;;;;;12.73;89.16;101019.31;4936116;29;20039;-81
2023/07/22 00:38:06;;;;;;;8.20;5.13;;;;;;;12.78;89.48;101013.94;4911068;29;20114;-77
2023/07/22 00:41:04;;;;;;;9.57;5.13;;;;;;;12.80;89.12;101019.03;4891192;29;20044;-74
2023/07/22 00:43:33;;;;;;;9.63;5.18;;;;;;;12.74;88.92;101020.94;4869060;29;20516;-76
2023/07/22 00:46:01;;;;;;;8.70;5.88;;;;;;;12.77;89.28;101023.06;4898674;29;20155;-77
2023/07/22 00:48:30;;;;;;;8.77;5.20;;;;;;;12.75;89.43;101016.38;4884120;29;20103;-77
2023/07/22 00:51:07;;;;;;;10.60;5.60;;;;;;;12.73;89.08;101023.91;4912956;29;20036;-77
2023/07/22 00:53:44;;;;;;;8.38;5.43;;;;;;;12.68;88.87;101024.75;4882449;29;20050;-77
2023/07/22 00:56:16;;;;;;;9.35;5.50;;;;;;;12.66;88.96;101018.81;4896974;29;20052;-77
2023/07/22 00:58:45;;;;;;;9.82;5.45;;;;;;;12.65;89.52;101013.72;4904561;29;20513;-81
2023/07/22 01:01:11;;;;;;;9.00;5.90;;;;;;;12.65;89.59;101019.91;4897562;29;20094;-81
2023/07/22 01:03:36;;;;;;;8.35;5.53;;;;;;;12.66;89.42;101010.75;4880841;29;20118;-78
2023/07/22 01:06:02;;;;;;;10.30;5.07;;;;;;;12.68;89.15;101014.00;4910367;29;20506;-77
2023/07/22 01:08:28;;;;;;;8.95;5.35;;;;;;;12.70;89.89;101016.41;4866963;29;20039;-77
2023/07/22 01:10:54;;;;;;;8.93;5.47;;;;;;;12.69;89.98;101015.59;4885515;29;20094;-78
2023/07/22 01:13:20;;;;;;;7.95;5.22;;;;;;;12.70;89.90;101011.03;4881367;29;20092;-77
2023/07/22 01:15:46;;;;;;;11.77;6.03;;;;;;;12.70;90.18;101009.13;4915887;29;20043;-79
2023/07/22 01:18:12;;;;;;;10.43;6.07;;;;;;;12.71;89.62;101012.63;4896388;29;20811;-80
2023/07/22 01:20:38;;;;;;;12.05;6.05;;;;;;;12.70;89.93;101008.34;4891426;29;20402;-79
2023/07/22 01:23:04;;;;;;;;;;;;;;;12.70;89.83;101011.81;4877025;29;20494;-79
2023/07/22 01:25:30;;;;;;;10.50;5.13;;;;;;;12.64;89.83;101012.94;4892799;29;19933;-79
2023/07/22 01:27:55;;;;;;;11.52;5.20;;;;;;;12.62;89.38;101008.94;4897767;29;20043;-74
2023/07/22 01:30:21;;;;;;;6.88;4.47;;;;;;;12.58;88.81;101009.47;4898043;29;21026;-79
2023/07/22 01:32:47;;;;;;;10.73;5.28;;;;;;;12.54;89.19;101007.63;4884685;29;20226;-80
2023/07/22 01:35:13;;;;;;;8.18;5.20;;;;;;;12.51;88.79;101008.16;4883033;29;20044;-82
2023/07/22 01:37:39;;;;;;;11.23;5.00;;;;;;;12.51;89.00;101008.16;4911007;29;20033;-78
2023/07/22 01:40:11;;;;;;;8.45;5.10;;;;;;;12.44;89.08;101007.66;4876277;29;20087;-78
2023/07/22 01:42:42;;;;;;;9.18;5.03;;;;;;;12.46;89.28;101010.84;4886632;29;20032;-79
2023/07/22 01:45:08;;;;;;;8.48;5.28;;;;;;;12.42;88.65;101007.13;4893852;29;20052;-76
2023/07/22 01:47:38;;;;;;;9.65;5.10;;;;;;;12.39;89.03;101000.41;4898620;29;20043;-78
2023/07/22 01:50:07;;;;;;;9.00;4.85;;;;;;;12.31;89.21;100995.63;4886708;29;20044;-79
2023/07/22 01:52:34;;;;;;;9.27;4.70;;;;;;;12.33;88.83;101004.22;4901042;29;20031;-74
2023/07/22 01:55:00;;;;;;;7.75;4.65;;;;;;;12.32;88.77;100999.09;4900492;29;20051;-79
2023/07/22 01:57:25;;;;;;;9.90;5.30;;;;;;;12.24;89.35;101000.47;4898513;29;20410;-79
2023/07/22 01:59:51;;;;;;;7.88;4.65;;;;;;;12.23;88.80;100999.69;4897581;29;20043;-78
2023/07/22 02:02:18;;;;;;;8.65;5.00;;;;;;;12.21;88.85;100985.72;4897843;29;20036;-75
2023/07/22 02:04:44;;;;;;;8.48;5.20;;;;;;;12.21;88.93;100993.78;4874135;29;20525;-78
2023/07/22 02:07:10;;;;;;;9.05;5.50;;;;;;;12.19;89.26;100998.63;4887789;29;20048;-78
2023/07/22 02:09:36;;;;;;;10.38;5.10;;;;;;;12.17;88.80;100992.72;4879729;29;20060;-76
2023/07/22 02:12:02;;;;;;;12.23;5.72;;;;;;;12.13;89.21;100996.25;4884488;29;20490;-75
2023/07/22 02:14:29;;;;;;;9.88;5.10;;;;;;;12.07;89.44;101000.81;4877150;29;20047;-76
2023/07/22 02:16:55;;;;;;;9.40;5.00;;;;;;;12.06;89.26;100999.22;4877817;29;20568;-78
2023/07/22 02:19:22;;;;;;;9.13;5.30;;;;;;;12.05;89.34;101004.81;4879167;29;20950;-76
2023/07/22 02:21:48;;;;;;;9.10;5.53;;;;;;;12.01;89.36;101004.59;4897572;29;20482;-76
2023/07/22 02:24:15;;;;;;;13.80;5.93;;;;;;;12.02;89.81;101003.50;4877441;29;20037;-78
2023/07/22 02:26:41;;;;;;;9.30;5.00;;;;;;;11.95;89.69;101001.09;4906508;29;20047;-79
2023/07/22 02:29:07;;;;;;;9.20;5.28;;;;;;;11.98;89.56;101005.91;4896461;29;20272;-78
2023/07/22 02:31:34;;;;;;;10.27;5.85;;;;;;;11.96;90.03;101007.28;4896157;29;20051;-77
2023/07/22 02:34:00;;;;;;;11.80;5.28;;;;;;;11.95;89.51;101005.66;4913220;29;20091;-80
2023/07/22 02:36:26;;;;;;;9.05;4.68;;;;;;;11.89;89.51;101012.91;4898396;29;20048;-81
2023/07/22 02:38:51;;;;;;;10.63;5.40;;;;;;;11.88;89.31;101007.84;4884956;29;20032;-77
2023/07/22 02:41:18;;;;;;;10.15;5.53;;;;;;;11.88;89.71;101011.31;4900237;29;20055;-79
2023/07/22 02:43:43;;;;;;;11.40;5.35;;;;;;;11.83;89.79;101007.84;4879649;29;20038;-78
2023/07/22 02:46:09;;;;;;;12.95;5.72;;;;;;;11.83;90.02;101013.19;4912279;29;20060;-79
2023/07/22 02:48:35;;;;;;;10.07;5.10;;;;;;;11.79;89.78;101012.94;4893776;29;20469;-78
2023/07/22 02:51:04;;;;;;;9.88;5.47;;;;;;;11.81;89.69;101008.13;4901046;29;20540;-78
2023/07/22 02:53:32;;;;;;;16.77;6.15;;;;;;;11.77;90.09;101010.50;4880955;29;20040;-80
2023/07/22 02:55:59;;;;;;;9.30;5.50;;;;;;;11.79;90.09;101014.81;4911099;29;20071;-81
2023/07/22 02:58:25;;;;;;;12.35;6.15;;;;;;;11.74;90.31;101011.03;4896284;29;20048;-78
2023/07/22 03:00:51;;;;;;;11.88;5.65;;;;;;;11.73;90.28;101017.50;4896101;23;20093;-71
2023/07/22 03:03:18;;;;;;;12.00;6.38;;;;;;;11.76;90.83;101016.94;4923307;28;20031;-69
2023/07/22 03:05:45;;;;;;;13.27;5.55;;;;;;;11.75;90.18;101023.38;4928898;29;20488;-69
2023/07/22 03:08:10;;;;;;;11.32;6.07;;;;;;;11.73;90.59;101024.72;4930915;29;20507;-70
2023/07/22 03:10:36;;;;;;;8.35;5.30;;;;;;;11.73;90.04;101020.16;4924783;29;20040;-69
2023/07/22 03:13:03;;;;;;;14.25;5.97;;;;;;;11.72;90.31;101023.94;4917280;29;20027;-69
2023/07/22 03:15:29;;;;;;;15.02;6.55;;;;;;;11.69;90.73;101023.66;4896813;29;20047;-70
2023/07/22 03:17:56;;;;;;;15.00;6.55;;;;;;;11.67;90.88;101026.63;4905130;29;20186;-70
2023/07/22 03:20:23;;;;;;;12.93;5.75;;;;;;;11.67;90.86;101031.97;4914047;29;20759;-70
2023/07/22 03:22:49;;;;;;;12.15;5.70;;;;;;;11.71;90.97;101026.88;4927503;29;20032;-71
2023/07/22 03:25:16;;;;;;;13.52;5.97;;;;;;;11.71;90.81;101016.94;4913175;29;20138;-70
2023/07/22 03:27:44;;;;;;;10.77;5.55;;;;;;;11.70;90.35;101036.78;4927697;29;20148;-71
2023/07/22 03:30:15;;;;;;;11.10;5.38;;;;;;;11.69;90.15;101045.91;4930930;29;20063;-71
2023/07/22 03:32:42;;;;;;;14.23;6.22;;;;;;;11.65;90.67;101044.03;4903191;29;20024;-70
2023/07/22 03:35:11;;;;;;;16.45;7.07;;;;;;;11.63;90.93;101047.00;4926249;29;20127;-71
2023/07/22 03:37:38;;;;;;;13.85;6.05;;;;;;;11.65;91.04;101044.88;4933113;29;20035;-70
2023/07/22 03:40:14;;;;;;;10.52;5.88;;;;;;;11.66;90.88;101051.84;4928290;29;20427;-71
2023/07/22 03:42:40;;;;;;;13.32;5.70;;;;;;;11.66;91.04;101051.84;4932863;29;20040;-70
2023/07/22 03:45:08;;;;;;;14.32;6.15;;;;;;;11.64;91.34;101045.91;4929303;29;20107;-70
2023/07/22 03:47:33;;;;;;;12.02;5.40;;;;;;;11.68;91.39;101057.72;4912246;29;20043;-71
2023/07/22 03:49:59;;;;;;;12.52;6.35;;;;;;;11.72;91.59;101050.75;4930881;29;20469;-70
2023/07/22 03:52:24;;;;;;;14.30;6.65;;;;;;;11.73;91.71;101047.00;4931107;29;20123;-70
2023/07/22 03:54:50;;;;;;;11.68;6.03;;;;;;;11.75;91.79;101054.78;4934140;29;20487;-70
2023/07/22 03:57:16;;;;;;;14.18;6.20;;;;;;;11.79;91.55;101049.69;4935119;29;20039;-70
2023/07/22 03:59:42;;;;;;;10.05;5.38;;;;;;;11.82;91.35;101052.66;4941787;29;20036;-71
2023/07/22 04:02:07;;;;;;;10.18;5.57;;;;;;;11.86;91.34;101058.28;4920465;29;20083;-71
2023/07/22 04:04:33;;;;;;;12.73;6.55;;;;;;;11.85;91.43;101052.09;4925788;29;20114;-70
2023/07/22 04:06:59;;;;;;;12.50;5.72;;;;;;;11.88;91.11;101050.78;4929571;29;20036;-71
2023/07/22 04:09:27;;;;;;;10.63;5.93;;;;;;;11.88;90.95;101046.22;4920085;29;20051;-71
2023/07/22 04:11:52;;;;;;;12.25;5.57;;;;;;;11.89;90.53;101055.88;4932980;29;20110;-70
2023/07/22 04:14:18;;;;;;;12.27;5.80;;;;;;;11.91;91.20;101052.91;4936388;29;20143;-70
2023/07/22 04:16:44;;;;;;;12.05;5.75;;;;;;;11.93;91.42;101048.88;4930365;29;20071;-71
2023/07/22 04:19:09;;;;;;;12.65;5.15;;;;;;;11.94;91.46;101057.75;4927122;29;20744;-70
2023/07/22 04:21:35;;;;;;;10.80;5.35;;;;;;;11.96;91.53;101059.06;4935192;29;20090;-70
2023/07/22 04:24:00;;;;;;;10.90;5.85;;;;;;;11.99;91.40;101058.53;4931190;29;20042;-70
2023/07/22 04:26:26;;;;;;;13.02;6.55;;;;;;;12.01;91.34;101058.28;4916257;29;20043;-70
2023/07/22 04:28:56;;;;;;;12.18;6.00;;;;;;;12.06;91.52;101073.53;4921912;29;20219;-72
2023/07/22 04:31:21;;;;;;;11.45;6.22;;;;;;;12.11;91.30;101068.97;4919338;29;20034;-71
2023/07/22 04:33:47;;;;;;;11.60;6.18;;;;;;;12.15;91.75;101063.88;4915263;29;20035;-71
2023/07/22 04:36:12;;;;;;;9.48;6.05;;;;;;;12.20;91.97;101077.31;4912885;29;20032;-70
2023/07/22 04:38:38;;;;;;;12.68;5.57;;;;;;;12.24;92.42;101073.78;4928484;29;20059;-70
2023/07/22 04:41:04;;;;;;;15.90;5.95;;;;;;;12.27;92.37;101070.56;4932228;29;20050;-71
2023/07/22 04:43:30;;;;;;;;;;;;;;;12.29;91.83;101076.47;4918535;29;20031;-70
2023/07/22 04:45:56;;;;;;;9.82;5.05;;;;;;;12.33;92.42;101086.66;4926983;29;19915;-70
2023/07/22 04:48:23;;;;;;;12.82;6.60;;;;;;;12.38;91.75;101084.75;4926813;29;20086;-70
2023/07/22 04:50:49;;;;;;;11.32;5.85;;;;;;;12.41;92.37;101083.41;4935733;29;20035;-70
2023/07/22 04:53:16;;;;;;;9.80;5.55;;;;;;;12.48;92.04;101094.69;4932857;29;20039;-72
2023/07/22 04:55:42;;;;;;;11.77;6.57;;;;;;;12.53;92.61;101094.63;4926074;29;20056;-70
2023/07/22 04:58:10;;;;;;;12.20;6.53;;;;;;;12.56;92.37;101099.47;4914051;29;20828;-70
2023/07/22 05:00:39;;;;;;;10.45;5.45;;;;;;;12.58;92.49;101100.81;4927488;29;20028;-71
2023/07/22 05:03:05;;;;;;;12.07;5.53;;;;;;;12.59;91.31;101104.28;4933379;29;20071;-70
2023/07/22 05:05:31;;;;;;;13.25;6.03;;;;;;;12.64;91.38;101114.22;4927695;28;20075;-71
2023/07/22 05:07:57;;;;;;;12.05;5.10;;;;;;;12.70;91.37;101113.94;4930037;29;20070;-70
2023/07/22 05:10:23;;;;;;;10.50;5.97;;;;;;;12.73;91.50;101117.94;4932831;29;21212;-69
2023/07/22 05:12:49;;;;;;;11.27;5.25;;;;;;;12.74;90.96;101117.69;4929523;29;20047;-70
2023/07/22 05:15:15;;;;;;;11.85;5.05;;;;;;;12.80;91.24;101107.72;4932444;29;20055;-70
2023/07/22 05:17:41;;;;;;;;;;;;;;;12.91;91.41;101113.84;4917921;29;20383;-70
2023/07/22 05:20:09;;;;;;;10.93;5.30;;;;;;;13.01;92.00;101108.44;4932792;29;19966;-70
2023/07/22 05:22:37;;;;;;;8.70;5.30;;;;;;;13.05;90.47;101110.28;4934303;29;20102;-71
2023/07/22 05:25:04;;;;;;;10.45;5.50;;;;;;;13.14;90.51;101113.22;4933140;29;20059;-70
2023/07/22 05:27:30;;;;;;;12.73;6.13;;;;;;;13.18;91.25;101106.19;4929075;29;20035;-70
2023/07/22 05:29:55;;;;;;;13.90;6.60;;;;;;;13.15;90.47;101114.81;4917294;29;20043;-70
2023/07/22 05:32:21;;;;;;;9.63;5.65;;;;;;;13.18;89.06;101122.31;4914513;29;20178;-70
2023/07/22 05:34:46;;;;;;;10.35;5.55;;;;;;;13.21;89.36;101113.75;4914583;29;20067;-71
2023/07/22 05:37:12;;;;;;;;;;;;;;;13.31;89.00;101120.94;4919006;29;20066;-71
2023/07/22 05:39:38;;;;;;;12.40;5.10;;;;;;;13.36;89.79;101119.03;4920976;29;20592;-70
2023/07/22 05:42:04;;;;;;;9.63;4.38;;;;;;;13.42;89.86;101130.56;4913447;29;20032;-69
2023/07/22 05:44:29;;;;;;;11.02;5.10;;;;;;;13.49;89.45;101131.06;4899483;29;20064;-70
2023/07/22 05:46:55;;;;;;;8.23;4.93;;;;;;;13.56;89.96;101136.94;4896875;29;20393;-70
2023/07/22 05:49:20;;;;;;;;;;;;;;;13.64;89.53;101132.84;4912948;29;20039;-70
2023/07/22 05:51:46;;;;;;;10.32;4.57;;;;;;;13.64;88.36;101135.53;4912723;29;19918;-71
2023/07/22 05:54:12;;;;;;;10.13;4.43;;;;;;;13.71;88.61;101132.50;4910800;29;20039;-70
2023/07/22 05:56:37;;;;;;;8.10;4.88;;;;;;;13.79;87.89;101132.72;4911700;29;20070;-70
2023/07/22 05:59:04;;;;;;;7.07;4.57;;;;;;;13.87;88.42;101137.47;4914152;29;20058;-70
2023/07/22 06:01:29;;;;;;;8.25;5.18;;;;;;;13.94;88.47;101140.66;4914396;29;20027;-70
2023/07/22 06:03:55;;;;;;;9.43;4.75;;;;;;;13.97;89.90;101138.50;4913916;29;20052;-70
2023/07/22 06:06:21;;;;;;;9.02;4.68;;;;;;;14.03;88.42;101135.50;4911553;29;20665;-70
2023/07/22 06:08:46;;;;;;;7.00;3.78;;;;;;;14.08;87.51;101142.69;4912568;29;20039;-70
2023/07/22 06:11:12;;;;;;;;;;;;;;;14.15;88.53;101135.09;4915139;29;20038;-70
2023/07/22 06:13:38;;;;;;;8.95;4.78;;;;;;;14.20;86.71;101129.66;4914748;29;20316;-70
2023/07/22 06:16:03;;;;;;;7.95;4.50;;;;;;;14.28;86.51;101136.31;4917563;29;20070;-69
2023/07/22 06:18:29;;;;;;;6.63;4.38;;;;;;;14.31;83.86;101144.66;4902888;29;20067;-70
2023/07/22 06:20:54;;;;;;;;;;;;;;;14.39;84.75;101138.63;4912723;29;20123;-70
2023/07/22 06:23:21;;;;;;;6.82;3.55;;;;;;;14.39;85.93;101148.63;4914134;29;19939;-70
2023/07/22 06:25:46;;;;;;;5.68;3.45;;;;;;;14.44;85.61;101149.38;4912279;29;20038;-70
2023/07/22 06:28:12;;;;;;;5.97;3.53;;;;;;;14.53;85.14;101154.16;4913462;29;20036;-70
2023/07/22 06:30:38;;;;;;;5.68;3.50;;;;;;;14.61;83.84;101150.84;4898096;29;20692;-70
2023/07/22 06:33:03;;;;;;;7.10;3.42;;;;;;;14.67;84.93;101150.50;4911387;29;20044;-71
2023/07/22 06:35:29;;;;;;;;;;;;;;;14.69;82.23;101160.97;4910080;29;20580;-71
2023/07/22 06:37:55;;;;;;;5.10;3.03;;;;;;;14.84;82.61;101144.66;4894960;29;19945;-71
2023/07/22 06:40:20;;;;;;;;;;;;;;;14.92;83.65;101154.00;4913134;29;20039;-72
2023/07/22 06:42:46;;;;;;;6.85;3.30;;;;;;;14.95;80.72;101156.91;4918038;29;19926;-72
2023/07/22 06:45:12;;;;;;;5.53;2.88;;;;;;;15.09;80.39;101150.81;4919757;29;20138;-72
2023/07/22 06:47:37;;;;;;;4.88;3.13;;;;;;;15.19;81.40;101150.69;4908979;29;20578;-70
2023/07/22 06:50:06;;;;;;;5.13;3.22;;;;;;;15.25;82.27;101154.91;4911847;29;20103;-70
2023/07/22 06:52:33;;;;;;;5.40;3.08;;;;;;;15.29;82.12;101155.94;4898283;29;20565;-71
2023/07/22 06:54:59;;;;;;;5.18;3.00;;;;;;;15.38;81.40;101151.50;4912100;29;20147;-70
2023/07/22 06:57:25;;;;;;;;;;;;;;;15.50;79.93;101151.84;4911916;29;20501;-70
2023/07/22 06:59:55;;;;;;;4.75;2.25;;;;;;;15.63;79.79;101149.53;4904153;29;20369;-70
2023/07/22 07:02:21;;;;;;;4.47;2.25;;;;;;;15.73;79.36;101154.78;4912412;29;20051;-69
2023/07/22 07:04:46;;;;;;;;;;;;;;;15.74;77.07;101159.09;4910954;29;20047;-70
2023/07/22 07:07:13;;;;;;;4.47;2.70;;;;;;;15.83;78.21;101151.91;4910744;29;19950;-70
2023/07/22 07:09:38;;;;;;;4.80;2.30;;;;;;;15.98;78.02;101161.66;4915677;29;20636;-70
2023/07/22 07:12:04;;;;;;;;;;;;;;;16.08;76.16;101162.31;4908006;29;20747;-70
2023/07/22 07:14:32;;;;;;;4.68;2.50;;;;;;;16.16;77.06;101162.72;4914356;29;19933;-70
2023/07/22 07:16:58;;;;;;;4.90;2.65;;;;;;;16.14;77.69;101170.34;4902177;29;20048;-69
2023/07/22 07:19:24;;;;;;;;;;;;;;;16.12;77.16;101167.91;4913722;29;20046;-70
2023/07/22 07:21:49;;;;;;;4.70;1.95;;;;;;;16.14;77.47;101171.13;4912556;29;19930;-69
2023/07/22 07:24:15;;;;;;;;;;;;;;;16.25;77.01;101171.75;4899633;29;20397;-69
2023/07/22 07:26:41;;;;;;;4.28;2.65;;;;;;;16.29;76.73;101178.19;4896605;29;19947;-71
2023/07/22 07:29:06;;;;;;;;;;;;;;;16.35;77.26;101174.28;4913795;29;20043;-71
2023/07/22 07:31:32;;;;;;;4.10;2.55;;;;;;;16.41;76.73;101173.09;4912385;29;19962;-69
2023/07/22 07:33:58;;;;;;;;;;;;;;;16.40;77.56;101178.81;4919216;29;20036;-70
2023/07/22 07:36:23;;;;;;;4.05;2.20;;;;;;;16.46;77.16;101177.59;4913917;29;19919;-70
2023/07/22 07:38:49;;;;;;;;;;;;;;;16.37;78.12;101180.19;4915552;29;20047;-70
2023/07/22 07:41:14;;;;;;;4.63;2.40;;;;;;;16.36;76.06;101189.41;4913226;29;19918;-70
2023/07/22 07:43:41;;;;;;;;;;;;;;;16.43;75.20;101189.81;4911473;29;20040;-69
2023/07/22 07:46:27;;;;;;;3.70;2.40;;;;;;;16.40;75.95;101195.03;4910645;29;19921;-69
2023/07/22 07:48:55;;;;;;;4.40;2.58;;;;;;;16.43;76.18;101189.00;4917955;29;20044;-69
2023/07/22 07:51:23;;;;;;;4.32;2.67;;;;;;;16.42;75.19;101190.91;4913271;29;20117;-72
2023/07/22 07:53:49;;;;;;;5.30;2.75;;;;;;;16.45;77.10;101192.22;4909920;29;20035;-71
2023/07/22 07:56:16;;;;;;;;;;;;;;;16.41;76.15;101200.13;4912184;29;20048;-70
2023/07/22 07:58:42;;;;;;;6.28;3.13;;;;;;;16.49;77.37;101199.44;4911905;29;19950;-70
2023/07/22 08:01:08;;;;;;;6.30;2.50;;;;;;;16.47;75.25;101196.25;4884846;29;20040;-71
2023/07/22 08:03:34;;;;;;;;;;;;;;;16.42;74.72;101204.44;4911148;29;20040;-70
2023/07/22 08:06:01;;;;;;;4.18;2.40;;;;;;;16.48;73.86;101205.94;4911437;29;20045;-71
2023/07/22 08:08:28;;;;;;;5.55;2.40;;;;;;;16.55;73.75;101209.06;4926050;28;20039;-70
2023/07/22 08:10:58;;;;;;;4.38;2.30;;;;;;;16.73;73.90;101198.47;4913853;29;20151;-70
2023/07/22 08:13:23;;;;;;;3.97;2.08;;;;;;;16.74;73.56;101205.53;4918121;29;20042;-70
2023/07/22 08:15:49;;;;;;;;;;;;;;;16.70;72.96;101199.09;4912504;29;20036;-70
2023/07/22 08:18:15;;;;;;;3.03;2.30;;;;;;;16.72;73.78;101197.69;4902587;29;19926;-70
2023/07/22 08:20:41;;;;;;;;;;;;;;;16.68;72.84;101201.28;4912341;29;20122;-70
2023/07/22 08:23:07;;;;;;;3.28;2.00;;;;;;;16.62;73.26;101204.06;4911849;29;20242;-70
2023/07/22 08:25:32;;;;;;;;;;;;;;;16.63;72.75;101205.66;4897936;29;20556;-71
2023/07/22 08:27:58;;;;;;;2.85;1.90;;;;;;;16.68;73.12;101203.97;4912688;29;20293;-71
2023/07/22 08:30:24;;;;;;;;;;;;;;;16.76;70.78;101206.00;4914343;29;20489;-71
2023/07/22 08:32:49;;;;;;;2.35;1.48;;;;;;;16.86;69.46;101208.50;4915660;29;19929;-71
2023/07/22 08:35:17;;;;;;;;;;;;;;;16.99;69.01;101202.28;4911602;29;20043;-70
2023/07/22 08:37:43;;;;;;;3.75;1.60;;;;;;;17.10;68.19;101205.63;4912979;29;20415;-70
2023/07/22 08:40:08;;;;;;;;;;;;;;;17.20;67.33;101208.09;4917973;29;20039;-70
2023/07/22 08:42:37;;;;;;;4.32;2.58;;;;;;;17.33;66.59;101195.66;4911695;29;19971;-70
2023/07/22 08:45:05;;;;;;;5.28;2.40;;;;;;;17.43;67.72;101201.66;4911301;29;20076;-70
2023/07/22 08:47:32;;;;;;;3.00;1.77;;;;;;;17.53;66.13;101199.81;4920340;29;20118;-71
2023/07/22 08:50:01;;;;;;;2.95;1.77;;;;;;;17.50;68.82;101209.38;4914203;29;20078;-71
2023/07/22 08:52:27;;;;;;;2.97;1.85;;;;;;;17.59;67.83;101204.81;4912462;29;20054;-70
2023/07/22 08:54:54;;;;;;;;;;;;;;;17.72;66.80;101206.72;4917714;29;20453;-70
2023/07/22 08:57:21;;;;;;;3.58;1.52;;;;;;;17.90;65.10;101206.88;4913357;29;19925;-70
2023/07/22 08:59:47;;;;;;;4.93;2.63;;;;;;;17.97;66.04;101196.41;4916499;23;20602;-74
2023/07/22 09:02:13;;;;;;;;;;;;;;;18.05;66.20;101206.50;4905027;29;20458;-73
2023/07/22 09:04:41;;;;;;;1.98;1.40;;;;;;;18.16;63.23;101197.00;4860728;29;19958;-74
2023/07/22 09:07:08;;;;;;;2.72;1.27;;;;;;;18.42;63.76;101204.47;4874219;29;20036;-75
2023/07/22 09:09:34;;;;;;;3.00;1.48;;;;;;;18.57;60.35;101201.38;4875441;29;20415;-74
2023/07/22 09:12:01;;;;;;;4.95;1.50;;;;;;;18.61;62.75;101201.53;4890652;29;20112;-74
2023/07/22 09:14:29;;;;;;;2.22;1.25;;;;;;;18.63;65.37;101210.16;4875345;29;20032;-72
2023/07/22 09:16:56;;;;;;;5.10;1.70;;;;;;;18.66;64.50;101198.69;4888467;29;20044;-76
2023/07/22 09:19:22;;;;;;;3.05;1.23;;;;;;;18.76;61.70;101201.16;4903788;29;20090;-75
2023/07/22 09:21:47;;;;;;;2.85;1.77;;;;;;;18.89;59.22;101202.16;4855610;29;20059;-79
2023/07/22 09:24:24;;;;;;;2.78;1.73;;;;;;;19.00;61.06;101207.00;4886643;29;20136;-76
2023/07/22 09:26:51;;;;;;;7.95;1.92;;;;;;;19.08;60.42;101217.06;4871429;29;20076;-74
2023/07/22 09:29:17;;;;;;;3.10;1.65;;;;;;;19.11;60.88;101201.28;4889470;29;20075;-74
2023/07/22 09:31:52;;;;;;;4.85;2.38;;;;;;;18.81;61.49;101196.38;4887999;29;20060;-73
2023/07/22 09:34:18;;;;;;;4.43;1.63;;;;;;;18.74;65.33;101195.25;4906095;29;20032;-77
2023/07/22 09:36:54;;;;;;;2.85;1.63;;;;;;;18.61;62.26;101199.63;4887947;29;20040;-77
2023/07/22 09:39:21;;;;;;;2.55;1.55;;;;;;;18.44;63.28;101199.56;4896910;29;20040;-75
2023/07/22 09:41:47;;;;;;;3.75;1.58;;;;;;;18.27;66.71;101197.53;4901477;29;20055;-75
2023/07/22 09:44:13;;;;;;;2.63;1.52;;;;;;;18.35;67.74;101198.69;4868497;29;20040;-75
2023/07/22 09:46:39;;;;;;;5.57;2.03;;;;;;;18.57;63.19;101198.66;4886046;29;20092;-73
2023/07/22 09:49:08;;;;;;;2.20;1.38;;;;;;;18.79;59.27;101195.91;4887247;29;20063;-73
2023/07/22 09:51:39;;;;;;;2.83;1.50;;;;;;;18.91;60.30;101199.94;4880046;29;20040;-75
2023/07/22 09:54:05;;;;;;;2.50;1.42;;;;;;;19.04;60.83;101193.59;4879333;29;20502;-72
2023/07/22 09:56:32;;;;;;;2.88;1.77;;;;;;;18.96;62.51;101191.63;4886628;29;20040;-75
2023/07/22 09:59:05;;;;;;;2.88;1.50;;;;;;;19.09;60.81;101196.94;4870855;29;20052;-74
2023/07/22 10:01:32;;;;;;;3.95;1.50;;;;;;;19.27;62.03;101202.44;4869536;29;20092;-76
2023/07/22 10:03:59;;;;;;;2.20;1.42;;;;;;;19.41;59.59;101189.50;4864581;29;20047;-76
2023/07/22 10:06:28;;;;;;;3.65;1.95;;;;;;;19.45;58.99;101189.69;4854285;29;20036;-76
2023/07/22 10:09:02;;;;;;;5.72;2.00;;;;;;;19.31;56.95;101187.91;4902850;29;20538;-73
2023/07/22 10:11:30;;;;;;;3.42;1.80;;;;;;;19.55;60.87;101186.63;4870556;29;20076;-76
2023/07/22 10:13:55;;;;;;;1.95;1.50;;;;;;;19.72;59.79;101180.44;4885507;29;20051;-75
2023/07/22 10:16:22;;;;;;;2.47;1.77;;;;;;;19.68;55.05;101174.84;4863506;29;20060;-73
2023/07/22 10:18:50;;;;;;;3.13;1.60;;;;;;;19.84;58.77;101181.38;4870451;29;20131;-74
2023/07/22 10:21:17;;;;;;;2.67;1.63;;;;;;;19.98;54.54;101191.28;4892001;29;21014;-74
2023/07/22 10:23:45;;;;;;;2.60;2.13;;;;;;;19.93;53.31;101191.47;4870677;29;20041;-76
2023/07/22 10:26:14;;;;;;;1.88;1.45;;;;;;;20.04;55.30;101187.28;4890504;29;20108;-75
2023/07/22 10:28:42;;;;;;;3.08;1.50;;;;;;;20.25;57.33;101181.94;4888765;29;20049;-75
2023/07/22 10:31:08;;;;;;;2.13;1.30;;;;;;;20.14;53.27;101176.06;4898606;29;20316;-74
2023/07/22 10:33:35;;;;;;;2.78;1.50;;;;;;;19.90;55.38;101190.16;4879858;29;20036;-76
2023/07/22 10:36:09;;;;;;;2.83;1.88;;;;;;;19.73;54.65;101180.13;4883888;29;20051;-79
2023/07/22 10:38:35;;;;;;;3.90;1.90;;;;;;;19.93;56.10;101188.75;4865970;29;20095;-74
2023/07/22 10:41:10;;;;;;;9.15;2.05;;;;;;;19.99;54.84;101184.75;4854466;29;20076;-76
2023/07/22 10:43:36;;;;;;;2.75;1.38;;;;;;;19.86;55.24;101187.31;4871270;29;20698;-75
2023/07/22 10:46:10;;;;;;;2.30;1.60;;;;;;;19.78;57.34;101182.69;4897917;29;20537;-74
2023/07/22 10:48:38;;;;;;;2.58;1.33;;;;;;;19.80;53.61;101182.34;4888864;29;20124;-75
2023/07/22 10:51:14;;;;;;;4.13;1.98;;;;;;;19.97;53.84;101176.88;4854085;29;20086;-77
2023/07/22 10:53:43;;;;;;;4.38;1.90;;;;;;;19.99;55.00;101184.75;4880988;29;20043;-76
2023/07/22 10:56:09;;;;;;;2.42;1.70;;;;;;;20.05;52.55;101178.00;4878247;29;20036;-77
2023/07/22 10:58:44;;;;;;;3.65;1.75;;;;;;;20.16;53.40;101180.06;4871282;29;20059;-77
2023/07/22 11:01:28;;;;;;;2.92;1.77;;;;;;;20.26;54.02;101178.13;4882092;29;20046;-76
2023/07/22 11:04:17;;;;;;;3.95;2.38;;;;;;;20.12;52.89;101183.75;4885793;29;20463;-77
2023/07/22 11:06:46;;;;;;;4.80;2.05;;;;;;;19.97;52.86;101173.38;4858844;29;20073;-75
2023/07/22 11:09:27;;;;;;;3.03;2.00;;;;;;;20.12;53.15;101167.44;4870459;29;20036;-77
2023/07/22 11:11:56;;;;;;;2.95;2.22;;;;;;;20.15;54.62;101162.16;4862594;29;20048;-75
2023/07/22 11:14:24;;;;;;;3.72;1.90;;;;;;;20.34;51.97;101171.88;4879959;29;20393;-77
2023/07/22 11:16:49;;;;;;;4.43;2.67;;;;;;;20.41;52.64;101180.31;4886025;29;20521;-77
2023/07/22 11:19:17;;;;;;;3.53;2.35;;;;;;;20.22;54.37;101180.69;4850417;29;20060;-77
2023/07/22 11:21:44;;;;;;;5.82;1.95;;;;;;;20.12;55.88;101183.75;4863480;29;20060;-72
2023/07/22 11:24:11;;;;;;;2.88;2.05;;;;;;;20.04;55.75;101170.97;4887142;29;20510;-74
2023/07/22 11:26:37;;;;;;;3.80;2.10;;;;;;;20.05;56.13;101173.38;4868669;29;20566;-71
2023/07/22 11:29:07;;;;;;;4.60;2.15;;;;;;;20.16;60.16;101181.97;4860529;29;21412;-77
2023/07/22 11:31:34;;;;;;;3.53;2.00;;;;;;;20.22;57.60;101171.72;4881481;29;20153;-78
2023/07/22 11:34:00;;;;;;;4.07;3.03;;;;;;;20.17;56.17;101170.78;4884034;29;20052;-76
2023/07/22 11:36:26;;;;;;;3.38;2.50;;;;;;;20.16;56.16;101168.38;4864761;29;20037;-77
2023/07/22 11:38:54;;;;;;;5.13;2.63;;;;;;;20.07;55.35;101167.63;4863661;29;20781;-76
2023/07/22 11:41:21;;;;;;;5.13;2.83;;;;;;;19.89;57.41;101159.47;4895836;29;20040;-77